Time;durP1;ratioP1;P1;durP2;ratioP2;P2;SDS_P1;SDS_P2;PMS_P1;PMS_P2;Temp;Humidity;BMP_temperature;BMP_pressure;BME280_temperature;BME280_humidity;BME280_pressure;Samples;Min_cycle;Max_cycle;Signal;HPM_P1;HPM_P2
2021/10/15 00:01:10;;;;;;;10.23;5.28;;;10.00;99.90;;;;;;5059659;28;20045;-77
2021/10/15 00:03:36;;;;;;;10.98;5.20;;;9.90;99.90;;;;;;5059625;28;20055;-77
2021/10/15 00:06:02;;;;;;;14.80;5.63;;;10.00;99.90;;;;;;5059660;28;20025;-77
2021/10/15 00:08:27;;;;;;;10.20;5.50;;;10.00;99.90;;;;;;5059635;28;20173;-77
2021/10/15 00:10:53;;;;;;;10.75;5.40;;;9.80;99.90;;;;;;5059609;28;20028;-77
2021/10/15 00:13:19;;;;;;;13.13;5.85;;;9.80;99.90;;;;;;5059568;28;20040;-77
2021/10/15 00:15:45;;;;;;;11.90;5.57;;;9.70;99.90;;;;;;5059581;28;20045;-76
2021/10/15 00:18:12;;;;;;;13.07;5.72;;;9.80;99.90;;;;;;5059737;28;20025;-77
2021/10/15 00:20:37;;;;;;;13.02;5.72;;;10.00;99.90;;;;;;5059655;28;20071;-77
2021/10/15 00:23:03;;;;;;;16.33;5.68;;;10.10;99.90;;;;;;5058247;28;20444;-77
2021/10/15 00:25:29;;;;;;;10.82;5.30;;;9.80;99.90;;;;;;5059457;28;20024;-77
2021/10/15 00:27:55;;;;;;;14.18;6.80;;;9.70;99.90;;;;;;5059489;28;20029;-77
2021/10/15 00:30:21;;;;;;;13.15;6.07;;;10.00;99.90;;;;;;5059747;28;20049;-77
2021/10/15 00:32:46;;;;;;;13.73;7.05;;;10.20;99.90;;;;;;5058994;28;20124;-77
2021/10/15 00:35:12;;;;;;;14.73;6.80;;;10.20;99.90;;;;;;5059394;28;20032;-77
2021/10/15 00:37:38;;;;;;;18.10;8.13;;;9.90;99.90;;;;;;5059315;28;20147;-77
2021/10/15 00:40:04;;;;;;;17.25;7.65;;;9.50;99.90;;;;;;5058024;28;20374;-77
2021/10/15 00:42:30;;;;;;;17.77;7.07;;;9.20;99.90;;;;;;5059279;28;20021;-77
2021/10/15 00:44:56;;;;;;;16.80;7.50;;;9.10;99.90;;;;;;5059421;28;20504;-77
2021/10/15 00:47:21;;;;;;;15.60;7.25;;;9.30;99.90;;;;;;5057990;28;20542;-76
2021/10/15 00:49:47;;;;;;;14.70;7.85;;;9.40;99.90;;;;;;5057968;28;20036;-77
2021/10/15 00:52:13;;;;;;;19.15;9.45;;;9.30;99.90;;;;;;5057792;28;20124;-77
2021/10/15 00:54:39;;;;;;;17.90;8.05;;;9.30;99.90;;;;;;5057923;28;20025;-77
2021/10/15 00:57:11;;;;;;;17.95;8.13;;;9.30;99.90;;;;;;5056518;28;20163;-77
2021/10/15 00:59:38;;;;;;;19.98;7.70;;;9.40;99.90;;;;;;5055871;28;20017;-76
2021/10/15 01:02:03;;;;;;;14.57;7.03;;;9.60;99.90;;;;;;5056000;28;20036;-77
2021/10/15 01:04:29;;;;;;;15.90;6.93;;;9.70;99.90;;;;;;5056269;28;20401;-76
2021/10/15 01:06:55;;;;;;;13.63;6.95;;;9.50;99.90;;;;;;5055902;28;20037;-77
2021/10/15 01:09:23;;;;;;;14.45;6.70;;;9.30;99.90;;;;;;5055907;28;20025;-77
2021/10/15 01:11:50;;;;;;;12.45;6.43;;;9.20;99.90;;;;;;5054655;28;20401;-77
2021/10/15 01:14:16;;;;;;;13.63;6.47;;;9.20;99.90;;;;;;5055758;28;20487;-77
2021/10/15 01:16:44;;;;;;;;;;;9.50;99.90;;;;;;5054839;28;20078;-78
2021/10/15 01:19:10;;;;;;;12.63;6.88;;;9.50;99.90;;;;;;5055741;28;19926;-77
2021/10/15 01:21:35;;;;;;;20.40;7.13;;;9.40;99.90;;;;;;5054317;28;20037;-78
2021/10/15 01:24:01;;;;;;;13.13;6.50;;;9.50;99.90;;;;;;5055628;28;20040;-77
2021/10/15 01:26:27;;;;;;;16.38;7.68;;;9.30;99.90;;;;;;5055499;28;20035;-77
2021/10/15 01:28:54;;;;;;;12.35;6.45;;;9.10;99.90;;;;;;5055493;28;20029;-77
2021/10/15 01:31:24;;;;;;;15.10;7.30;;;9.20;99.90;;;;;;5054969;28;20041;-77
2021/10/15 01:33:50;;;;;;;12.80;6.32;;;9.10;99.90;;;;;;5055458;28;20021;-77
2021/10/15 01:36:16;;;;;;;13.07;6.18;;;9.30;99.90;;;;;;5055328;28;20025;-77
2021/10/15 01:38:42;;;;;;;13.30;6.43;;;9.50;99.90;;;;;;5055246;28;20032;-77
2021/10/15 01:41:09;;;;;;;13.95;6.60;;;9.50;99.90;;;;;;5054037;28;20108;-77
2021/10/15 01:43:35;;;;;;;14.63;6.70;;;9.30;99.90;;;;;;5053908;28;20462;-77
2021/10/15 01:46:01;;;;;;;16.23;6.32;;;9.20;99.90;;;;;;5055405;28;20045;-77
2021/10/15 01:48:27;;;;;;;14.00;6.55;;;9.20;99.90;;;;;;5053824;28;20112;-77
2021/10/15 01:50:53;;;;;;;13.15;5.72;;;9.10;99.90;;;;;;5055086;28;20054;-78
2021/10/15 01:53:20;;;;;;;9.55;4.57;;;9.20;99.90;;;;;;5055013;28;20029;-77
2021/10/15 01:55:45;;;;;;;;;;;9.40;99.90;;;;;;5055342;28;20025;-77
2021/10/15 01:58:11;;;;;;;9.20;4.05;;;9.40;99.90;;;;;;5054925;28;19995;-77
2021/10/15 02:00:38;;;;;;;12.75;4.68;;;9.40;99.90;;;;;;5054835;28;20524;-77
2021/10/15 02:03:04;;;;;;;12.00;4.78;;;9.40;99.90;;;;;;5054850;28;20595;-77
2021/10/15 02:05:30;;;;;;;10.75;4.82;;;9.40;99.90;;;;;;5054743;28;20036;-77
2021/10/15 02:07:57;;;;;;;11.90;5.47;;;9.40;99.90;;;;;;5054748;28;20052;-77
2021/10/15 02:10:23;;;;;;;;;;;9.20;99.90;;;;;;5054925;28;20033;-77
2021/10/15 02:12:49;;;;;;;10.05;4.47;;;9.10;99.90;;;;;;5054559;28;20000;-78
2021/10/15 02:15:15;;;;;;;12.00;4.40;;;9.20;99.90;;;;;;5054535;28;20021;-77
2021/10/15 02:17:41;;;;;;;9.85;4.22;;;9.30;99.90;;;;;;5054535;28;20021;-77
2021/10/15 02:20:10;;;;;;;11.82;5.03;;;9.40;99.90;;;;;;5054681;28;20049;-77
2021/10/15 02:22:44;;;;;;;11.13;5.22;;;9.00;99.90;;;;;;5053056;28;20029;-77
2021/10/15 02:25:11;;;;;;;14.60;6.22;;;8.80;99.90;;;;;;5054442;28;20025;-76
2021/10/15 02:27:37;;;;;;;15.60;6.50;;;8.80;99.90;;;;;;5054287;28;20109;-77
2021/10/15 02:30:07;;;;;;;15.90;5.70;;;9.00;99.90;;;;;;5054362;28;20048;-77
2021/10/15 02:32:33;;;;;;;12.90;5.90;;;8.90;99.90;;;;;;5052771;28;20129;-77
2021/10/15 02:34:59;;;;;;;13.57;6.10;;;9.10;99.90;;;;;;5054456;28;20446;-77
2021/10/15 02:37:25;;;;;;;13.52;5.90;;;9.20;99.90;;;;;;5054129;28;20029;-77
2021/10/15 02:39:50;;;;;;;13.43;6.13;;;9.10;99.90;;;;;;5052831;28;20027;-77
2021/10/15 02:42:16;;;;;;;20.05;6.13;;;8.90;99.90;;;;;;5052803;28;20036;-77
2021/10/15 02:44:43;;;;;;;11.88;5.38;;;9.30;99.90;;;;;;5052794;28;20027;-77
2021/10/15 02:47:09;;;;;;;12.52;5.40;;;9.20;99.90;;;;;;5053938;28;20037;-77
2021/10/15 02:49:34;;;;;;;15.20;6.00;;;9.40;99.90;;;;;;5054176;28;20025;-77
2021/10/15 02:52:00;;;;;;;20.50;6.68;;;9.40;99.90;;;;;;5053963;28;20048;-78
2021/10/15 02:54:26;;;;;;;13.85;6.57;;;9.20;99.90;;;;;;5052536;28;20106;-77
2021/10/15 02:56:52;;;;;;;17.90;6.70;;;8.50;99.90;;;;;;5053815;28;20151;-77
2021/10/15 02:59:17;;;;;;;10.55;5.80;;;8.30;99.90;;;;;;5053958;28;20485;-77
2021/10/15 03:01:43;;;;;;;13.98;5.50;;;8.60;99.90;;;;;;5054059;28;20104;-77
2021/10/15 03:04:09;;;;;;;12.82;5.00;;;9.00;99.90;;;;;;5053810;28;20455;-77
2021/10/15 03:06:35;;;;;;;13.55;5.25;;;9.00;99.90;;;;;;5052422;28;20039;-77
2021/10/15 03:09:02;;;;;;;12.02;4.97;;;9.10;99.90;;;;;;5052346;28;20025;-77
2021/10/15 03:11:28;;;;;;;10.77;5.10;;;9.00;99.90;;;;;;5053490;28;20040;-77
2021/10/15 03:13:53;;;;;;;12.93;4.90;;;9.00;99.90;;;;;;5052284;28;20397;-77
2021/10/15 03:16:19;;;;;;;10.32;4.68;;;9.20;99.90;;;;;;5053510;28;20436;-77
2021/10/15 03:18:45;;;;;;;11.52;5.00;;;9.40;99.90;;;;;;5053708;28;20025;-77
2021/10/15 03:21:11;;;;;;;13.02;4.97;;;9.50;99.90;;;;;;5051615;28;20032;-77
2021/10/15 03:23:37;;;;;;;13.18;5.30;;;9.40;99.90;;;;;;5052129;28;20492;-78
2021/10/15 03:26:03;;;;;;;14.50;4.72;;;9.10;99.90;;;;;;5053443;28;20397;-78
2021/10/15 03:28:29;;;;;;;11.48;4.32;;;9.20;99.90;;;;;;5053322;28;20431;-77
2021/10/15 03:30:55;;;;;;;11.25;5.30;;;9.40;99.90;;;;;;5053413;28;20021;-77
2021/10/15 03:33:21;;;;;;;16.27;5.78;;;9.10;99.90;;;;;;5051684;28;20043;-77
2021/10/15 03:35:46;;;;;;;10.90;5.20;;;9.10;99.90;;;;;;5053215;28;20036;-77
2021/10/15 03:38:12;;;;;;;12.57;5.10;;;9.30;99.90;;;;;;5053164;28;20021;-77
2021/10/15 03:40:38;;;;;;;13.10;4.90;;;9.50;99.90;;;;;;5053198;28;20025;-77
2021/10/15 03:43:04;;;;;;;13.10;5.07;;;9.40;99.90;;;;;;5051882;28;20032;-77
2021/10/15 03:45:30;;;;;;;13.00;4.93;;;9.30;99.90;;;;;;5053121;28;20071;-77
2021/10/15 03:47:55;;;;;;;14.10;5.30;;;9.10;99.90;;;;;;5051865;28;20029;-77
2021/10/15 03:50:21;;;;;;;11.15;4.78;;;9.20;99.90;;;;;;5053070;28;20033;-77
2021/10/15 03:52:47;;;;;;;;;;;9.00;99.90;;;;;;5053515;28;20033;-77
2021/10/15 03:55:13;;;;;;;10.57;4.65;;;9.00;99.90;;;;;;5053056;28;19905;-77
2021/10/15 03:57:40;;;;;;;11.07;4.57;;;9.00;99.90;;;;;;5051706;28;20063;-77
2021/10/15 04:00:09;;;;;;;10.70;4.95;;;8.80;99.90;;;;;;5052969;28;20029;-77
2021/10/15 04:02:39;;;;;;;10.05;4.72;;;8.90;99.90;;;;;;5053000;28;20079;-77
2021/10/15 04:05:06;;;;;;;11.63;4.78;;;8.90;99.90;;;;;;5052969;28;20033;-77
2021/10/15 04:07:33;;;;;;;10.10;4.68;;;8.70;99.90;;;;;;5051684;28;20025;-77
2021/10/15 04:09:59;;;;;;;14.10;5.75;;;8.70;99.90;;;;;;5052923;28;20496;-77
2021/10/15 04:12:25;;;;;;;11.95;5.45;;;8.70;99.90;;;;;;5052810;28;20021;-77
2021/10/15 04:14:50;;;;;;;13.18;6.22;;;8.60;99.90;;;;;;5052907;28;20039;-77
2021/10/15 04:17:16;;;;;;;13.65;6.18;;;8.70;99.90;;;;;;5052797;28;20029;-76
2021/10/15 04:19:42;;;;;;;14.45;7.47;;;8.80;99.90;;;;;;5052761;28;20048;-76
2021/10/15 04:22:10;;;;;;;14.23;7.65;;;9.10;99.90;;;;;;5052830;28;20067;-77
2021/10/15 04:24:37;;;;;;;14.55;6.82;;;9.20;99.90;;;;;;5052754;28;20044;-77
2021/10/15 04:27:04;;;;;;;16.73;7.07;;;9.30;99.90;;;;;;5052725;28;20029;-77
2021/10/15 04:29:29;;;;;;;;;;;9.30;99.90;;;;;;5053130;28;20068;-78
2021/10/15 04:31:55;;;;;;;15.55;6.72;;;9.10;99.90;;;;;;5052641;28;19968;-77
2021/10/15 04:34:21;;;;;;;14.77;6.70;;;9.20;99.90;;;;;;5055891;28;20063;-77
2021/10/15 04:36:46;;;;;;;14.77;7.55;;;9.30;99.90;;;;;;5056894;28;20063;-77
2021/10/15 04:39:12;;;;;;;17.10;7.43;;;9.20;99.90;;;;;;5056439;28;20021;-77
2021/10/15 04:41:38;;;;;;;18.05;6.35;;;9.20;99.90;;;;;;5056370;28;20033;-77
2021/10/15 04:44:04;;;;;;;20.27;6.68;;;9.30;99.90;;;;;;5056335;28;20025;-77
2021/10/15 04:46:30;;;;;;;;;;;9.60;99.90;;;;;;5056685;28;20531;-76
2021/10/15 04:48:55;;;;;;;15.23;4.70;;;9.50;99.90;;;;;;5056257;28;19909;-76
2021/10/15 04:51:21;;;;;;;12.75;5.47;;;9.30;99.90;;;;;;5056079;28;20048;-77
2021/10/15 04:53:47;;;;;;;11.23;5.18;;;8.90;99.90;;;;;;5056127;28;20036;-76
2021/10/15 04:56:13;;;;;;;17.80;5.32;;;9.00;99.90;;;;;;5056138;28;20013;-77
2021/10/15 04:58:39;;;;;;;12.48;4.85;;;9.10;99.90;;;;;;5056275;28;20501;-77
2021/10/15 05:01:04;;;;;;;15.20;5.30;;;8.80;99.90;;;;;;5055983;28;20017;-77
2021/10/15 05:03:30;;;;;;;11.18;5.75;;;8.60;99.90;;;;;;5054670;28;20033;-77
2021/10/15 05:05:56;;;;;;;13.52;6.32;;;8.70;99.90;;;;;;5056009;28;20028;-77
2021/10/15 05:08:22;;;;;;;18.23;6.97;;;8.30;99.90;;;;;;5055918;28;20060;-77
2021/10/15 05:10:48;;;;;;;17.08;8.30;;;8.40;99.90;;;;;;5055984;28;20021;-77
2021/10/15 05:13:17;;;;;;;18.15;6.78;;;8.70;99.90;;;;;;5055734;28;20056;-77
2021/10/15 05:15:44;;;;;;;14.32;6.82;;;8.80;99.90;;;;;;5055741;28;20017;-77
2021/10/15 05:18:14;;;;;;;16.15;6.75;;;8.80;99.90;;;;;;5054332;28;20025;-77
2021/10/15 05:20:41;;;;;;;20.20;7.18;;;8.60;99.90;;;;;;5055674;28;20067;-77
2021/10/15 05:23:07;;;;;;;17.13;6.88;;;8.70;99.90;;;;;;5055603;28;20056;-77
2021/10/15 05:25:34;;;;;;;23.45;7.10;;;8.50;99.90;;;;;;5055633;28;20017;-77
2021/10/15 05:28:00;;;;;;;15.98;6.72;;;8.20;99.90;;;;;;5055495;28;20025;-77
2021/10/15 05:30:26;;;;;;;15.43;6.18;;;8.40;99.90;;;;;;5054450;28;20374;-76
2021/10/15 05:32:53;;;;;;;16.73;6.30;;;8.70;99.90;;;;;;5054903;28;20045;-77
2021/10/15 05:35:20;;;;;;;13.15;6.05;;;8.60;99.90;;;;;;5055309;28;20128;-77
2021/10/15 05:37:46;;;;;;;33.70;6.40;;;8.40;99.90;;;;;;5055247;28;20051;-78
2021/10/15 05:40:13;;;;;;;29.80;6.85;;;8.50;99.90;;;;;;5055289;28;20029;-77
2021/10/15 05:42:46;;;;;;;16.85;6.50;;;8.70;99.90;;;;;;5055247;28;20033;-77
2021/10/15 05:45:13;;;;;;;13.32;5.38;;;8.40;99.90;;;;;;5054782;28;20029;-76
2021/10/15 05:47:38;;;;;;;;;;;8.40;99.90;;;;;;5055525;28;20033;-77
2021/10/15 05:50:05;;;;;;;14.05;6.40;;;8.50;99.90;;;;;;5055095;28;19976;-77
2021/10/15 05:52:37;;;;;;;24.73;6.85;;;8.40;99.90;;;;;;5054904;28;20035;-77
2021/10/15 06:00:24;;;;;;;19.00;7.15;;;8.20;99.90;;;;;;5054575;28;20029;-77
2021/10/15 06:02:50;;;;;;;15.00;6.43;;;7.90;99.90;;;;;;5055020;28;20477;-77
2021/10/15 06:15:59;;;;;;;16.23;5.70;;;8.60;99.90;;;;;;5054591;28;20051;-77
2021/10/15 06:18:24;;;;;;;14.80;5.80;;;8.40;99.90;;;;;;5054637;28;20017;-77
2021/10/15 06:20:51;;;;;;;10.68;5.32;;;8.10;99.90;;;;;;5053198;28;20116;-76
2021/10/15 06:23:18;;;;;;;10.77;5.20;;;8.10;99.90;;;;;;5054427;28;20445;-77
2021/10/15 06:25:44;;;;;;;13.68;5.47;;;8.30;99.90;;;;;;5054263;28;20029;-77
2021/10/15 06:28:13;;;;;;;21.77;5.63;;;8.40;99.90;;;;;;5053070;28;20028;-76
2021/10/15 06:30:40;;;;;;;18.38;5.40;;;8.60;99.90;;;;;;5054095;28;20155;-76
2021/10/15 06:33:06;;;;;;;14.57;6.07;;;8.60;99.90;;;;;;5054204;28;20497;-77
2021/10/15 06:35:32;;;;;;;10.32;5.53;;;8.20;99.90;;;;;;5054186;28;20024;-77
2021/10/15 06:37:58;;;;;;;16.98;5.68;;;8.00;99.90;;;;;;5054117;28;20021;-77
2021/10/15 06:40:25;;;;;;;11.80;5.25;;;7.80;99.90;;;;;;5054170;28;20021;-76
2021/10/15 06:42:50;;;;;;;16.30;5.47;;;7.90;99.90;;;;;;5054031;28;20024;-77
2021/10/15 06:45:16;;;;;;;8.98;4.85;;;8.00;99.90;;;;;;5054033;28;20446;-78
2021/10/15 06:47:42;;;;;;;12.98;4.80;;;7.90;99.90;;;;;;5052758;28;20036;-76
2021/10/15 06:50:09;;;;;;;17.55;5.18;;;8.00;99.90;;;;;;5054146;28;20404;-78
2021/10/15 06:52:46;;;;;;;49.15;7.70;;;8.40;99.90;;;;;;5052602;28;20028;-77
2021/10/15 06:55:22;;;;;;;27.98;7.55;;;8.00;99.90;;;;;;5051678;28;20135;-78
2021/10/15 06:57:48;;;;;;;45.28;8.70;;;7.90;99.90;;;;;;5053871;28;20503;-78
2021/10/15 07:00:15;;;;;;;33.53;7.78;;;7.60;99.90;;;;;;5052027;28;20082;-78
2021/10/15 07:02:42;;;;;;;21.67;5.63;;;7.50;99.90;;;;;;5053472;28;20032;-77
2021/10/15 07:05:09;;;;;;;31.00;6.53;;;7.60;99.90;;;;;;5053754;28;20108;-77
2021/10/15 07:07:36;;;;;;;18.83;6.40;;;7.90;99.90;;;;;;5053965;28;20021;-77
2021/10/15 07:10:04;;;;;;;20.38;6.03;;;8.40;99.90;;;;;;5053866;28;20053;-78
2021/10/15 07:12:39;;;;;;;29.00;7.75;;;9.20;99.90;;;;;;5053389;28;20108;-77
2021/10/15 07:15:06;;;;;;;17.55;6.30;;;9.50;99.90;;;;;;5053585;28;20441;-78
2021/10/15 07:17:32;;;;;;;25.67;7.35;;;9.80;99.90;;;;;;5053382;28;20021;-77
2021/10/15 07:19:58;;;;;;;23.17;6.50;;;10.60;99.90;;;;;;5053781;28;20031;-77
2021/10/15 07:22:24;;;;;;;;;;;11.70;99.90;;;;;;5052599;28;20112;-78
2021/10/15 07:24:50;;;;;;;22.05;5.68;;;11.90;99.90;;;;;;5068768;28;19904;-78
2021/10/15 07:27:16;;;;;;;;;;;13.10;98.00;;;;;;5054047;28;20033;-77
2021/10/15 07:29:41;;;;;;;17.10;5.10;;;13.80;95.50;;;;;;5053278;28;19951;-77
2021/10/15 07:32:07;;;;;;;14.60;5.63;;;14.30;93.80;;;;;;5051758;28;20045;-77
2021/10/15 07:34:33;;;;;;;13.43;4.88;;;14.60;92.30;;;;;;5053282;28;20017;-78
2021/10/15 07:36:59;;;;;;;15.35;5.90;;;15.00;91.50;;;;;;5053203;28;20021;-78
2021/10/15 07:39:25;;;;;;;23.52;6.50;;;15.00;91.40;;;;;;5053219;28;20025;-78
2021/10/15 07:41:51;;;;;;;15.25;5.88;;;15.70;90.80;;;;;;5053235;28;20100;-77
2021/10/15 07:44:17;;;;;;;14.20;5.30;;;15.20;90.40;;;;;;5053545;28;20163;-78
2021/10/15 07:46:43;;;;;;;14.52;6.00;;;16.00;90.50;;;;;;5051837;28;20469;-78
2021/10/15 07:49:09;;;;;;;14.63;5.70;;;16.70;89.20;;;;;;5053057;28;20099;-78
2021/10/15 07:51:35;;;;;;;13.05;5.78;;;17.30;85.50;;;;;;5053347;28;20116;-78
2021/10/15 07:54:01;;;;;;;14.75;6.00;;;17.60;83.30;;;;;;5053046;28;20070;-78
2021/10/15 07:56:27;;;;;;;16.85;6.50;;;17.70;82.60;;;;;;5053016;28;20017;-78
2021/10/15 07:58:53;;;;;;;15.98;6.72;;;18.30;80.00;;;;;;5053051;28;20048;-78
2021/10/15 08:01:19;;;;;;;15.93;5.72;;;18.10;77.60;;;;;;5051708;28;20392;-78
2021/10/15 08:03:45;;;;;;;13.05;5.88;;;18.60;79.30;;;;;;5052971;28;20025;-78
2021/10/15 08:06:11;;;;;;;14.18;5.20;;;19.40;76.80;;;;;;5052922;28;20112;-77
2021/10/15 08:08:37;;;;;;;16.65;5.97;;;19.50;75.20;;;;;;5057093;28;20063;-78
2021/10/15 08:11:03;;;;;;;14.32;5.15;;;20.10;72.50;;;;;;5055596;28;20021;-78
2021/10/15 08:13:28;;;;;;;11.93;5.65;;;19.70;73.20;;;;;;5056852;28;20021;-77
2021/10/15 08:15:54;;;;;;;14.35;5.80;;;18.80;75.80;;;;;;5056844;28;20044;-78
2021/10/15 08:18:20;;;;;;;14.85;5.97;;;18.40;77.70;;;;;;5055551;28;20397;-77
2021/10/15 08:20:46;;;;;;;13.48;5.82;;;18.20;77.90;;;;;;5057324;28;20024;-78
2021/10/15 08:23:12;;;;;;;15.30;6.10;;;18.10;80.00;;;;;;5056708;28;20025;-78
2021/10/15 08:25:39;;;;;;;11.55;5.50;;;17.80;81.20;;;;;;5056793;28;20103;-78
2021/10/15 08:28:05;;;;;;;14.38;5.82;;;17.80;82.00;;;;;;5057178;28;20021;-77
2021/10/15 08:30:31;;;;;;;17.38;6.30;;;17.60;82.90;;;;;;5055328;28;20028;-78
2021/10/15 08:32:58;;;;;;;16.67;7.40;;;17.50;83.20;;;;;;5056064;28;20045;-77
2021/10/15 08:35:24;;;;;;;13.43;6.57;;;17.10;84.70;;;;;;5056515;28;20088;-77
2021/10/15 08:37:51;;;;;;;14.77;6.80;;;16.60;87.70;;;;;;5056409;28;20025;-77
2021/10/15 08:40:18;;;;;;;14.40;6.70;;;16.20;89.80;;;;;;5056519;28;20016;-77
2021/10/15 08:42:56;;;;;;;14.88;6.80;;;15.90;90.90;;;;;;5056431;28;20036;-76
2021/10/15 08:45:29;;;;;;;14.13;6.25;;;16.00;91.50;;;;;;5056682;28;20017;-78
2021/10/15 08:47:55;;;;;;;17.70;7.85;;;16.00;92.00;;;;;;5055013;28;20025;-77
2021/10/15 08:50:22;;;;;;;19.75;7.22;;;15.80;92.40;;;;;;5054945;28;20057;-77
2021/10/15 08:52:48;;;;;;;12.15;6.85;;;15.80;92.80;;;;;;5056500;28;20025;-77
2021/10/15 08:55:14;;;;;;;;;;;15.70;93.60;;;;;;5057112;28;20025;-77
2021/10/15 08:57:45;;;;;;;12.95;6.93;;;15.50;94.30;;;;;;5056157;28;19905;-77
2021/10/15 09:00:25;;;;;;;18.42;7.55;;;15.40;94.90;;;;;;5054529;28;20029;-77
2021/10/15 09:03:10;;;;;;;21.05;7.25;;;15.40;95.50;;;;;;5056316;28;20029;-77
2021/10/15 09:05:36;;;;;;;18.95;7.80;;;15.40;96.20;;;;;;5054709;28;20133;-77
2021/10/15 09:08:03;;;;;;;;;;;15.40;96.70;;;;;;5056346;28;20104;-77
2021/10/15 09:10:31;;;;;;;17.00;8.00;;;15.50;96.80;;;;;;5055915;28;19970;-77
2021/10/15 09:12:57;;;;;;;15.77;6.43;;;15.60;97.10;;;;;;5055740;28;20032;-77
2021/10/15 09:15:33;;;;;;;;;;;15.40;98.10;;;;;;5056771;28;20092;-78
2021/10/15 09:18:10;;;;;;;20.50;7.28;;;15.60;97.70;;;;;;5055553;28;19905;-77
2021/10/15 09:20:36;;;;;;;22.00;7.32;;;15.80;98.40;;;;;;5055789;28;20520;-77
2021/10/15 09:23:02;;;;;;;12.35;6.53;;;16.50;97.20;;;;;;5054324;28;20123;-77
2021/10/15 09:25:33;;;;;;;18.10;7.53;;;17.00;96.40;;;;;;5055564;28;20025;-78
2021/10/15 09:27:59;;;;;;;15.02;7.15;;;17.30;95.50;;;;;;5054236;28;20025;-77
2021/10/15 09:30:28;;;;;;;15.73;7.80;;;17.30;95.30;;;;;;5054261;28;20087;-78
2021/10/15 09:33:04;;;;;;;24.38;7.70;;;17.80;95.40;;;;;;5053685;28;20049;-78
2021/10/15 09:35:32;;;;;;;14.65;6.45;;;20.40;91.80;;;;;;5055695;28;20036;-78
2021/10/15 09:38:01;;;;;;;17.15;6.60;;;21.70;85.60;;;;;;5053976;28;20111;-79
2021/10/15 09:40:31;;;;;;;16.17;7.25;;;22.40;83.80;;;;;;5055269;28;20107;-78
2021/10/15 09:42:59;;;;;;;15.77;6.40;;;23.00;78.40;;;;;;5053746;28;20079;-78
2021/10/15 09:45:28;;;;;;;16.25;6.88;;;23.40;76.00;;;;;;5055520;28;20047;-79
2021/10/15 09:47:56;;;;;;;12.43;6.57;;;23.80;73.40;;;;;;5055455;28;20377;-78
2021/10/15 09:50:27;;;;;;;13.63;6.55;;;22.70;75.30;;;;;;5055408;28;20024;-78
2021/10/15 09:52:58;;;;;;;22.08;7.60;;;22.10;77.00;;;;;;5055026;28;20103;-78
2021/10/15 09:55:41;;;;;;;14.65;6.53;;;22.00;79.40;;;;;;5055282;28;20031;-78
2021/10/15 09:58:19;;;;;;;16.37;6.83;;;22.80;76.80;;;;;;5054862;28;20029;-78
2021/10/15 10:00:47;;;;;;;14.80;7.20;;;23.60;74.60;;;;;;5055227;28;20047;-79
2021/10/15 10:03:17;;;;;;;15.82;6.80;;;25.90;71.90;;;;;;5053563;28;20533;-79
2021/10/15 10:05:43;;;;;;;12.55;6.30;;;28.70;62.70;;;;;;5054827;28;20021;-80
2021/10/15 10:08:13;;;;;;;13.25;6.20;;;29.90;57.70;;;;;;5054841;28;20432;-80
2021/10/15 10:10:40;;;;;;;12.27;6.07;;;29.90;56.70;;;;;;5054732;28;20025;-80
2021/10/15 10:13:07;;;;;;;14.13;6.07;;;33.20;53.30;;;;;;5053319;28;20040;-80
2021/10/15 10:15:37;;;;;;;15.00;6.80;;;34.80;50.00;;;;;;5053342;28;20032;-80
2021/10/15 10:18:24;;;;;;;12.60;6.68;;;36.00;46.50;;;;;;5054877;28;20028;-80
2021/10/15 10:21:08;;;;;;;13.93;6.80;;;34.80;46.10;;;;;;5053012;28;20028;-80
2021/10/15 10:23:37;;;;;;;12.25;6.20;;;35.80;45.40;;;;;;5054601;28;20025;-80
2021/10/15 10:26:05;;;;;;;10.80;6.32;;;35.40;45.60;;;;;;5053146;28;20021;-80
2021/10/15 10:28:32;;;;;;;13.23;6.70;;;36.30;44.80;;;;;;5054626;28;20036;-80
2021/10/15 10:31:03;;;;;;;15.00;7.13;;;36.60;43.70;;;;;;5052794;28;20053;-81
2021/10/15 10:33:31;;;;;;;11.80;7.20;;;36.60;42.90;;;;;;5053859;28;20025;-80
2021/10/15 10:36:10;;;;;;;11.77;7.50;;;34.20;44.80;;;;;;5054323;28;20485;-81
2021/10/15 10:38:37;;;;;;;19.75;8.82;;;36.00;43.50;;;;;;5054208;28;20025;-81
2021/10/15 10:41:06;;;;;;;12.02;7.25;;;35.00;42.50;;;;;;5054435;28;20025;-80
2021/10/15 10:43:42;;;;;;;22.45;6.70;;;32.00;45.80;;;;;;5052728;28;20084;-80
2021/10/15 10:46:16;;;;;;;17.42;7.30;;;30.40;48.10;;;;;;5054332;28;20051;-81
2021/10/15 10:48:51;;;;;;;11.85;7.40;;;32.80;46.50;;;;;;5052428;28;20104;-81
2021/10/15 10:51:31;;;;;;;14.00;7.50;;;35.10;45.20;;;;;;5052677;28;20477;-81
2021/10/15 10:54:05;;;;;;;14.07;8.77;;;35.40;44.70;;;;;;5052428;28;20554;-81
2021/10/15 10:56:41;;;;;;;14.57;8.20;;;35.60;42.60;;;;;;5052338;28;20469;-81
2021/10/15 10:59:16;;;;;;;15.07;8.48;;;35.90;43.60;;;;;;5052577;28;20500;-78
2021/10/15 11:02:10;;;;;;;11.30;7.00;;;37.50;41.00;;;;;;5044576;28;20025;-79
2021/10/15 11:04:42;;;;;;;10.73;6.53;;;37.70;40.70;;;;;;5028826;28;20071;-79
2021/10/15 11:07:08;;;;;;;11.48;6.20;;;38.20;40.90;;;;;;5044750;28;20018;-78
2021/10/15 11:09:54;;;;;;;9.95;5.32;;;36.80;41.60;;;;;;5040210;28;20441;-79
2021/10/15 11:12:27;;;;;;;9.40;5.20;;;38.80;40.40;;;;;;5044001;28;20027;-78
2021/10/15 11:14:59;;;;;;;8.93;4.47;;;40.10;39.00;;;;;;5044053;28;20013;-78
2021/10/15 11:17:37;;;;;;;9.98;4.35;;;39.40;38.90;;;;;;5042429;28;20029;-78
2021/10/15 11:20:25;;;;;;;12.35;4.60;;;38.00;39.20;;;;;;5039892;28;20082;-78
2021/10/15 11:23:05;;;;;;;7.55;3.67;;;36.30;39.60;;;;;;5042202;28;20050;-78
2021/10/15 11:25:42;;;;;;;13.50;4.03;;;36.90;40.00;;;;;;5040288;28;20021;-78
2021/10/15 11:28:11;;;;;;;14.27;4.38;;;37.10;39.60;;;;;;5040910;28;20021;-78
2021/10/15 11:30:39;;;;;;;16.50;4.45;;;37.20;39.50;;;;;;5033333;28;20029;-77
2021/10/15 11:33:10;;;;;;;10.52;4.15;;;36.40;40.30;;;;;;5033390;28;20052;-78
2021/10/15 11:35:39;;;;;;;9.38;4.03;;;37.30;39.10;;;;;;5033633;28;20097;-78
2021/10/15 11:38:13;;;;;;;11.85;5.05;;;37.40;39.30;;;;;;5033263;28;20022;-78
2021/10/15 11:40:41;;;;;;;13.35;4.57;;;38.70;37.20;;;;;;5033330;28;20433;-77
2021/10/15 11:43:22;;;;;;;10.23;4.07;;;38.10;37.90;;;;;;5031505;28;20036;-77
2021/10/15 11:45:59;;;;;;;11.90;3.88;;;36.90;38.40;;;;;;5031677;28;20021;-77
2021/10/15 11:48:34;;;;;;;7.22;3.28;;;36.60;38.20;;;;;;5033276;28;20045;-77
2021/10/15 11:51:14;;;;;;;9.13;3.90;;;37.90;38.90;;;;;;5033174;28;20026;-77
2021/10/15 11:53:44;;;;;;;11.32;3.70;;;38.10;37.90;;;;;;5033414;28;20026;-77
2021/10/15 11:56:15;;;;;;;8.82;3.40;;;38.80;37.10;;;;;;5033153;28;20025;-77
2021/10/15 11:58:55;;;;;;;12.05;3.95;;;39.10;37.90;;;;;;5033296;28;20026;-78
2021/10/15 12:01:27;;;;;;;9.73;3.28;;;38.10;37.80;;;;;;5033649;28;20425;-77
2021/10/15 12:03:58;;;;;;;5.72;3.10;;;37.40;39.20;;;;;;5033292;28;20087;-78
2021/10/15 12:06:32;;;;;;;7.13;3.70;;;40.40;37.60;;;;;;5033048;28;20052;-78
2021/10/15 12:09:02;;;;;;;7.97;4.32;;;40.60;36.70;;;;;;5033555;28;20040;-78
2021/10/15 12:11:36;;;;;;;8.93;4.20;;;40.70;35.90;;;;;;5032993;28;20017;-78
2021/10/15 12:14:04;;;;;;;9.55;4.40;;;41.20;35.70;;;;;;5032978;28;20024;-78
2021/10/15 12:16:46;;;;;;;7.95;3.90;;;40.90;36.10;;;;;;5032914;28;20101;-78
2021/10/15 12:19:22;;;;;;;129.15;10.13;;;41.10;36.10;;;;;;5031440;28;20445;-78
2021/10/15 12:21:56;;;;;;;11.40;3.95;;;39.40;36.60;;;;;;5033043;28;20393;-78
2021/10/15 12:24:29;;;;;;;8.65;3.47;;;38.70;36.90;;;;;;5033248;28;20028;-78
2021/10/15 12:27:19;;;;;;;8.57;3.78;;;38.30;37.50;;;;;;5033111;28;20366;-78
2021/10/15 12:29:46;;;;;;;12.68;4.30;;;39.40;36.50;;;;;;5031504;28;20029;-78
2021/10/15 12:32:38;;;;;;;10.10;4.18;;;40.10;36.00;;;;;;5032694;28;20054;-78
2021/10/15 12:35:10;;;;;;;8.65;4.65;;;41.70;36.30;;;;;;5031868;28;20389;-78
2021/10/15 12:37:51;;;;;;;11.60;3.95;;;40.40;35.30;;;;;;5031464;28;20120;-78
2021/10/15 12:40:32;;;;;;;7.93;4.10;;;39.40;36.00;;;;;;5033023;28;20030;-78
2021/10/15 12:43:07;;;;;;;12.95;4.32;;;39.70;36.20;;;;;;5031130;28;20079;-78
2021/10/15 12:45:55;;;;;;;10.48;4.82;;;40.00;37.10;;;;;;5033055;28;20025;-78
2021/10/15 12:48:23;;;;;;;9.68;3.53;;;41.50;35.70;;;;;;5032813;28;20032;-78
2021/10/15 12:51:00;;;;;;;10.57;3.40;;;37.20;36.80;;;;;;5032920;28;20028;-78
2021/10/15 12:53:26;;;;;;;9.20;3.22;;;36.30;38.60;;;;;;5032901;28;20030;-78
2021/10/15 12:55:59;;;;;;;8.85;3.17;;;35.40;39.80;;;;;;5036219;28;20506;-78
2021/10/15 12:58:27;;;;;;;10.97;3.10;;;34.10;41.10;;;;;;5036227;28;20049;-78
2021/10/15 13:01:01;;;;;;;8.55;3.08;;;34.60;40.70;;;;;;5036040;28;20104;-77
2021/10/15 13:03:27;;;;;;;15.68;3.70;;;33.20;41.80;;;;;;5034491;28;20052;-78
2021/10/15 13:05:55;;;;;;;14.20;3.88;;;32.80;43.30;;;;;;5034790;28;20021;-77
2021/10/15 13:08:21;;;;;;;10.25;3.83;;;30.80;45.40;;;;;;5035988;28;20029;-80